createdAt,value
2018-06-18T00:01:50.122Z,84.30
2018-06-18T00:04:19.062Z,84.20
2018-06-18T00:06:48.046Z,86.70
2018-06-18T00:09:17.090Z,84.00
2018-06-18T00:11:46.129Z,85.40
2018-06-18T00:14:15.068Z,84.70
2018-06-18T00:16:44.079Z,85.40
2018-06-18T00:19:12.989Z,85.30
2018-06-18T00:21:41.929Z,83.90
2018-06-18T00:24:11.138Z,84.10
2018-06-18T00:26:40.074Z,87.70
2018-06-18T00:29:09.245Z,88.00
2018-06-18T00:31:38.242Z,84.50
2018-06-18T00:34:07.190Z,83.50
2018-06-18T00:36:36.181Z,86.20
2018-06-18T00:39:07.182Z,85.20
2018-06-18T00:41:36.085Z,85.80
2018-06-18T00:44:05.014Z,83.70
2018-06-18T00:46:34.095Z,83.20
2018-06-18T00:49:02.994Z,84.20
2018-06-18T00:51:31.945Z,84.40
2018-06-18T00:54:01.055Z,84.30
2018-06-18T00:56:29.989Z,86.30
2018-06-18T00:58:59.117Z,86.50
2018-06-18T01:01:28.056Z,85.10
2018-06-18T01:03:57.000Z,84.40
2018-06-18T01:08:54.411Z,84.80
2018-06-18T01:11:23.540Z,90.30
2018-06-18T01:13:52.437Z,89.40
2018-06-18T01:16:21.647Z,88.10
2018-06-18T01:18:50.608Z,88.70
2018-06-18T01:21:19.695Z,89.10
2018-06-18T01:24:02.053Z,85.10
2018-06-18T01:26:31.031Z,84.60
2018-06-18T01:29:00.002Z,84.90
2018-06-18T01:31:28.949Z,85.90
2018-06-18T01:34:00.072Z,87.50
2018-06-18T01:36:28.962Z,87.10
2018-06-18T01:38:58.142Z,86.60
2018-06-18T01:41:27.012Z,88.50
2018-06-18T01:43:55.929Z,87.50
2018-06-18T01:46:24.894Z,87.90
2018-06-18T01:48:53.994Z,89.50
2018-06-18T01:51:23.177Z,89.00
2018-06-18T01:53:52.246Z,88.60
2018-06-18T01:56:21.178Z,88.40
2018-06-18T01:58:50.106Z,88.70
2018-06-18T02:01:19.150Z,90.20
2018-06-18T02:03:48.123Z,89.60
2018-06-18T02:06:17.271Z,87.90
2018-06-18T02:08:46.514Z,90.00
2018-06-18T02:11:15.391Z,88.90
2018-06-18T02:13:44.465Z,88.10
2018-06-18T02:16:13.544Z,88.40
2018-06-18T02:18:42.410Z,89.50
2018-06-18T02:21:11.333Z,90.50
2018-06-18T02:23:40.442Z,90.20
2018-06-18T02:26:09.400Z,89.70
2018-06-18T02:28:38.273Z,90.20
2018-06-18T02:31:07.528Z,90.20
2018-06-18T02:33:36.471Z,90.30
2018-06-18T02:36:05.361Z,90.20
2018-06-18T02:38:34.535Z,90.50
2018-06-18T02:41:03.725Z,90.60
2018-06-18T02:43:32.769Z,91.40
2018-06-18T02:46:01.820Z,91.70
2018-06-18T02:48:30.729Z,90.70
2018-06-18T02:50:59.662Z,90.60
2018-06-18T02:53:30.155Z,91.00
2018-06-18T02:55:59.829Z,91.10
2018-06-18T02:58:28.917Z,91.00
2018-06-18T03:00:57.877Z,91.20
2018-06-18T03:03:26.882Z,91.40
2018-06-18T03:05:55.785Z,91.70
2018-06-18T03:08:24.883Z,91.30
2018-06-18T03:10:53.833Z,92.30
2018-06-18T03:13:23.058Z,91.90
2018-06-18T03:15:52.023Z,91.60
2018-06-18T03:18:21.029Z,92.10
2018-06-18T03:20:50.021Z,92.10
2018-06-18T03:23:19.410Z,92.40
2018-06-18T03:25:48.371Z,92.10
2018-06-18T03:30:45.897Z,92.30
2018-06-18T03:33:15.052Z,92.50
2018-06-18T03:35:43.964Z,92.50
2018-06-18T03:38:12.938Z,92.40
2018-06-18T03:40:41.928Z,93.50
2018-06-18T03:43:10.935Z,92.70
2018-06-18T03:45:40.080Z,93.50
2018-06-18T03:48:10.953Z,93.20
2018-06-18T03:50:40.266Z,93.60
2018-06-18T03:53:09.191Z,93.50
2018-06-18T03:55:44.024Z,93.70
2018-06-18T03:58:12.938Z,93.70
2018-06-18T04:01:24.326Z,93.80
2018-06-18T04:03:55.623Z,94.40
2018-06-18T04:06:25.074Z,94.20
2018-06-18T04:08:54.138Z,94.60
2018-06-18T04:11:23.092Z,94.20
2018-06-18T04:13:52.274Z,94.00
2018-06-18T04:16:21.265Z,93.80
2018-06-18T04:18:50.222Z,93.70
2018-06-18T04:21:19.548Z,93.60
2018-06-18T04:23:48.542Z,94.20
2018-06-18T04:26:17.787Z,94.40
2018-06-18T04:28:46.780Z,94.50
2018-06-18T04:31:15.854Z,93.90
2018-06-18T04:34:54.297Z,93.30
2018-06-18T04:37:23.247Z,94.20
2018-06-18T04:39:52.187Z,93.00
2018-06-18T04:42:21.118Z,93.00
2018-06-18T04:44:50.574Z,93.30
2018-06-18T04:47:19.546Z,93.00
2018-06-18T04:49:48.551Z,92.80
2018-06-18T04:52:17.590Z,93.00
2018-06-18T04:54:46.512Z,92.80
2018-06-18T04:57:15.419Z,92.60
2018-06-18T04:59:48.109Z,92.40
2018-06-18T05:02:17.246Z,92.60
2018-06-18T05:04:46.313Z,92.50
2018-06-18T05:07:15.631Z,92.70
2018-06-18T05:09:54.337Z,92.70
2018-06-18T05:12:23.280Z,92.70
2018-06-18T05:14:52.260Z,92.50
2018-06-18T05:17:21.211Z,92.50
2018-06-18T05:19:50.345Z,92.10
2018-06-18T05:22:19.277Z,92.30
2018-06-18T05:24:49.047Z,92.10
2018-06-18T05:27:18.910Z,92.00
2018-06-18T05:29:48.003Z,92.20
2018-06-18T05:32:16.976Z,92.30
2018-06-18T05:34:46.744Z,92.70
2018-06-18T05:37:20.447Z,91.80
2018-06-18T05:39:49.359Z,91.70
2018-06-18T05:42:18.305Z,91.10
2018-06-18T05:44:47.219Z,91.30
2018-06-18T05:47:16.314Z,91.30
2018-06-18T05:49:45.291Z,90.80
2018-06-18T05:52:14.515Z,90.70
2018-06-18T05:54:43.483Z,90.70
2018-06-18T05:57:12.571Z,90.60
2018-06-18T05:59:41.538Z,90.10
2018-06-18T06:02:10.474Z,90.00
2018-06-18T06:04:39.449Z,89.60
2018-06-18T06:07:08.788Z,89.50
2018-06-18T06:09:37.995Z,89.90
2018-06-18T06:12:07.866Z,90.10
2018-06-18T06:14:36.830Z,90.20
2018-06-18T06:17:05.997Z,90.30
2018-06-18T06:19:35.021Z,90.40
2018-06-18T06:22:03.890Z,90.70
2018-06-18T06:24:32.810Z,90.70
2018-06-18T06:27:01.753Z,90.70
2018-06-18T06:29:30.888Z,90.80
2018-06-18T06:31:59.733Z,91.00
2018-06-18T06:34:29.266Z,91.30
2018-06-18T06:36:58.186Z,90.90
2018-06-18T06:39:27.117Z,90.20
2018-06-18T06:42:02.490Z,90.40
2018-06-18T06:44:31.510Z,90.20
2018-06-18T06:47:00.618Z,89.60
2018-06-18T06:49:29.578Z,89.00
2018-06-18T06:51:58.559Z,88.70
2018-06-18T06:54:27.459Z,88.40
2018-06-18T06:56:56.487Z,87.50
2018-06-18T06:59:25.430Z,88.10
2018-06-18T07:01:54.430Z,87.40
2018-06-18T07:04:23.403Z,87.80
2018-06-18T07:06:52.438Z,87.80
2018-06-18T07:11:49.929Z,87.20
2018-06-18T07:14:25.875Z,87.70
2018-06-18T07:16:54.805Z,87.40
2018-06-18T07:19:23.893Z,86.70
2018-06-18T07:21:52.779Z,86.80
2018-06-18T07:24:21.745Z,86.80
2018-06-18T07:26:50.637Z,86.10
2018-06-18T07:29:19.816Z,86.20
2018-06-18T07:34:17.263Z,86.10
2018-06-18T07:36:46.238Z,86.60
2018-06-18T07:39:15.274Z,86.60
2018-06-18T07:41:44.182Z,86.70
2018-06-18T07:44:13.239Z,86.50
2018-06-18T07:49:10.656Z,86.50
2018-06-18T07:51:40.093Z,86.50
2018-06-18T07:54:09.057Z,85.20
2018-06-18T07:56:39.959Z,85.50
2018-06-18T07:59:08.964Z,85.40
2018-06-18T08:01:37.940Z,85.50
2018-06-18T08:04:06.868Z,84.70
2018-06-18T08:06:35.786Z,84.20
2018-06-18T08:09:08.212Z,83.70
2018-06-18T08:11:37.208Z,83.70
2018-06-18T08:14:06.238Z,83.40
2018-06-18T08:16:35.322Z,84.00
2018-06-18T08:19:04.435Z,82.70
2018-06-18T08:21:33.444Z,82.80
2018-06-18T08:24:02.794Z,82.80
2018-06-18T08:26:31.955Z,81.80
2018-06-18T08:29:00.888Z,82.00
2018-06-18T08:31:29.957Z,82.20
2018-06-18T08:33:58.980Z,82.70
2018-06-18T08:36:27.907Z,82.90
2018-06-18T08:38:56.842Z,83.10
2018-06-18T08:41:25.883Z,83.00
2018-06-18T08:43:54.878Z,83.10
2018-06-18T08:46:23.834Z,83.30
2018-06-18T08:48:52.949Z,83.00
2018-06-18T08:51:22.202Z,82.90
2018-06-18T08:53:51.363Z,83.30
2018-06-18T08:56:20.369Z,83.90
2018-06-18T08:58:49.345Z,84.10
2018-06-18T09:01:18.344Z,84.40
2018-06-18T09:03:47.332Z,84.40
2018-06-18T09:08:45.101Z,84.40
2018-06-18T09:11:14.170Z,84.40
2018-06-18T09:13:43.101Z,84.20
2018-06-18T09:16:12.049Z,84.50
2018-06-18T09:18:41.164Z,84.50
2018-06-18T09:21:10.331Z,83.70
2018-06-18T09:23:39.316Z,83.90
2018-06-18T09:26:08.265Z,84.00
2018-06-18T09:28:37.241Z,83.70
2018-06-18T09:31:06.174Z,83.40
2018-06-18T09:33:35.159Z,83.30
2018-06-18T09:36:04.097Z,83.50
2018-06-18T09:38:33.025Z,83.00
2018-06-18T09:41:01.924Z,82.10
2018-06-18T09:43:31.057Z,82.30
2018-06-18T09:46:00.008Z,81.10
2018-06-18T09:48:29.239Z,80.70
2018-06-18T09:50:58.633Z,81.40
2018-06-18T09:53:27.617Z,80.60
2018-06-18T09:55:56.637Z,81.10
2018-06-18T09:58:26.466Z,80.90
2018-06-18T10:01:16.472Z,81.60
2018-06-18T10:06:13.968Z,81.50
2018-06-18T10:08:43.198Z,80.70
2018-06-18T10:11:12.113Z,81.70
2018-06-18T10:13:41.049Z,82.30
2018-06-18T10:16:10.200Z,82.30
2018-06-18T10:18:39.228Z,81.20
2018-06-18T10:21:08.151Z,81.50
2018-06-18T10:23:37.190Z,81.30
2018-06-18T10:28:34.554Z,82.00
2018-06-18T10:31:03.496Z,81.40
2018-06-18T10:33:32.658Z,82.10
2018-06-18T10:36:01.574Z,82.30
2018-06-18T10:38:30.810Z,80.70
2018-06-18T10:40:59.758Z,80.90
2018-06-18T10:45:57.210Z,81.60
2018-06-18T10:48:26.153Z,82.20
2018-06-18T10:50:55.156Z,82.20
2018-06-18T10:53:24.198Z,81.80
2018-06-18T10:55:53.282Z,81.80
2018-06-18T10:58:22.678Z,82.30
2018-06-18T11:00:55.836Z,82.50
2018-06-18T11:03:24.854Z,81.60
2018-06-18T11:05:53.951Z,82.00
2018-06-18T11:10:51.297Z,81.60
2018-06-18T11:13:20.334Z,81.90
2018-06-18T11:15:49.330Z,82.30
2018-06-18T11:18:18.374Z,82.60
2018-06-18T11:20:47.346Z,82.70
2018-06-18T11:23:16.436Z,83.00
2018-06-18T11:25:45.405Z,82.90
2018-06-18T11:28:14.404Z,82.90
2018-06-18T11:30:43.432Z,83.10
2018-06-18T11:33:27.012Z,82.80
2018-06-18T11:35:55.971Z,82.20
2018-06-18T11:38:24.979Z,82.20
2018-06-18T11:40:54.024Z,82.20
2018-06-18T11:43:22.996Z,82.50
2018-06-18T11:45:51.924Z,82.00
2018-06-18T11:48:21.193Z,82.60
2018-06-18T11:50:50.321Z,83.30
2018-06-18T11:53:19.206Z,83.30
2018-06-18T11:55:48.255Z,83.80
2018-06-18T11:58:17.229Z,85.70
2018-06-18T12:00:46.325Z,86.00
2018-06-18T12:03:15.389Z,86.20
2018-06-18T12:05:44.501Z,87.10
2018-06-18T12:08:13.463Z,86.70
2018-06-18T12:10:42.527Z,86.40
2018-06-18T12:13:11.533Z,87.10
2018-06-18T12:15:40.599Z,85.50
2018-06-18T12:18:09.578Z,85.40
2018-06-18T12:20:38.568Z,85.10
2018-06-18T12:23:07.522Z,84.90
2018-06-18T12:25:36.668Z,85.10
2018-06-18T12:28:05.795Z,85.00
2018-06-18T12:30:34.726Z,85.50
2018-06-18T12:33:03.710Z,86.10
2018-06-18T12:38:01.148Z,86.70
2018-06-18T12:40:30.104Z,86.70
2018-06-18T12:42:59.057Z,87.70
2018-06-18T12:45:28.850Z,88.50
2018-06-18T12:47:57.769Z,90.00
2018-06-18T12:50:26.691Z,91.30
2018-06-18T12:52:55.694Z,91.60
2018-06-18T12:55:24.703Z,91.20
2018-06-18T12:57:53.744Z,91.40
2018-06-18T13:02:55.055Z,91.70
2018-06-18T13:05:24.136Z,91.60
2018-06-18T13:07:53.097Z,91.70
2018-06-18T13:10:22.130Z,91.50
2018-06-18T13:12:51.052Z,91.40
2018-06-18T13:15:20.070Z,91.40
2018-06-18T13:17:48.958Z,91.40
2018-06-18T13:20:18.987Z,91.30
2018-06-18T13:22:51.670Z,91.10
2018-06-18T13:25:37.587Z,91.20
2018-06-18T13:28:15.236Z,90.80
2018-06-18T13:30:48.977Z,91.00
2018-06-18T13:39:07.622Z,90.40
2018-06-18T13:41:59.705Z,90.70
2018-06-18T13:44:35.938Z,90.70
2018-06-18T13:47:08.744Z,90.40
2018-06-18T13:49:38.534Z,90.30
2018-06-18T13:52:09.184Z,89.60
2018-06-18T13:54:44.372Z,89.30
2018-06-18T13:57:17.423Z,89.00
2018-06-18T13:59:48.997Z,88.50
2018-06-18T14:02:35.940Z,89.80
2018-06-18T14:07:11.363Z,88.20
2018-06-18T14:09:46.009Z,88.70
2018-06-18T14:15:18.981Z,87.30
2018-06-18T14:22:57.516Z,86.30
2018-06-18T14:25:32.712Z,85.90
2018-06-18T14:30:47.541Z,84.80
2018-06-18T14:33:25.253Z,85.40
2018-06-18T14:35:56.206Z,85.40
2018-06-18T14:38:27.553Z,85.30
2018-06-18T14:40:57.290Z,86.00
2018-06-18T14:43:27.184Z,86.00
2018-06-18T14:45:59.533Z,85.70
2018-06-18T14:48:29.260Z,86.40
2018-06-18T14:50:58.614Z,86.60
2018-06-18T14:53:27.704Z,86.30
2018-06-18T14:56:32.933Z,86.40
2018-06-18T15:00:11.999Z,87.10
2018-06-18T15:05:10.058Z,86.80
2018-06-18T15:07:39.057Z,87.00
2018-06-18T15:10:08.266Z,87.00
2018-06-18T15:12:51.156Z,86.90
2018-06-18T15:15:20.063Z,86.70
2018-06-18T15:17:49.238Z,86.80
2018-06-18T15:20:19.223Z,86.60
2018-06-18T15:22:54.757Z,86.70
2018-06-18T15:25:24.388Z,86.80
2018-06-18T15:27:53.367Z,86.80
2018-06-18T15:30:22.340Z,85.40
2018-06-18T15:32:51.422Z,85.20
2018-06-18T15:35:20.317Z,85.60
2018-06-18T15:37:49.363Z,85.40
2018-06-18T15:40:18.650Z,85.70
2018-06-18T15:42:47.858Z,85.90
2018-06-18T15:45:16.987Z,86.50
2018-06-18T15:47:45.929Z,86.60
2018-06-18T15:50:14.998Z,87.30
2018-06-18T15:52:44.110Z,86.70
2018-06-18T15:55:13.226Z,86.60
2018-06-18T15:57:42.297Z,86.60
2018-06-18T16:00:11.286Z,86.90
2018-06-18T16:02:40.227Z,87.60
2018-06-18T16:05:09.151Z,87.60
2018-06-18T16:07:38.143Z,87.80
2018-06-18T16:10:07.142Z,87.30
2018-06-18T16:12:36.099Z,86.70
2018-06-18T16:15:05.151Z,86.60
2018-06-18T16:17:34.314Z,86.60
2018-06-18T16:20:03.748Z,86.20
2018-06-18T16:22:32.824Z,86.20
2018-06-18T16:25:02.001Z,86.50
2018-06-18T16:27:31.013Z,86.30
2018-06-18T16:32:30.230Z,86.60
2018-06-18T16:34:59.431Z,86.70
2018-06-18T16:37:28.386Z,87.10
2018-06-18T16:39:57.415Z,86.90
2018-06-18T16:42:26.403Z,86.80
2018-06-18T16:44:55.504Z,86.70
2018-06-18T16:47:24.875Z,86.30
2018-06-18T16:49:54.206Z,85.80
2018-06-18T16:52:23.206Z,86.00
2018-06-18T16:54:52.150Z,86.20
2018-06-18T16:57:21.346Z,86.10
2018-06-18T16:59:50.380Z,86.30
2018-06-18T17:02:19.336Z,86.50
2018-06-18T17:04:48.290Z,85.70
2018-06-18T17:07:17.322Z,86.10
2018-06-18T17:14:43.768Z,86.50
2018-06-18T17:17:13.061Z,86.30
2018-06-18T17:19:42.105Z,86.50
2018-06-18T17:22:11.580Z,86.80
2018-06-18T17:24:41.476Z,86.60
2018-06-18T17:27:10.720Z,87.00
2018-06-18T17:29:39.676Z,86.50
2018-06-18T17:32:08.753Z,86.40
2018-06-18T17:34:37.743Z,85.70
2018-06-18T17:37:06.786Z,85.50
2018-06-18T17:39:35.836Z,84.80
2018-06-18T17:42:04.964Z,84.90
2018-06-18T17:44:33.977Z,84.20
2018-06-18T17:47:03.021Z,85.30
2018-06-18T17:49:32.026Z,84.90
2018-06-18T17:52:01.159Z,84.50
2018-06-18T17:54:30.197Z,84.20
2018-06-18T17:56:59.214Z,84.10
2018-06-18T17:59:28.596Z,84.30
2018-06-18T18:04:26.252Z,83.90
2018-06-18T18:06:55.334Z,84.30
2018-06-18T18:09:24.457Z,84.30
2018-06-18T18:11:53.442Z,84.70
2018-06-18T18:14:22.428Z,84.20
2018-06-18T18:16:51.428Z,85.00
2018-06-18T18:19:20.442Z,85.60
2018-06-18T18:21:49.360Z,86.00
2018-06-18T18:24:18.995Z,86.10
2018-06-18T18:26:48.154Z,86.00
2018-06-18T18:29:17.142Z,86.00
2018-06-18T18:31:46.151Z,86.40
2018-06-18T18:34:15.116Z,86.70
2018-06-18T18:36:44.226Z,86.10
2018-06-18T18:39:13.254Z,86.10
2018-06-18T18:41:42.374Z,86.10
2018-06-18T18:44:11.432Z,86.10
2018-06-18T18:46:40.490Z,86.60
2018-06-18T18:49:09.507Z,86.80
2018-06-18T18:51:38.438Z,86.30
2018-06-18T18:54:17.409Z,86.10
2018-06-18T18:56:57.685Z,86.40
2018-06-18T18:59:27.750Z,85.90
2018-06-18T19:04:31.402Z,86.60
2018-06-18T19:07:00.785Z,86.40
2018-06-18T19:09:36.182Z,87.10
2018-06-18T19:12:05.463Z,86.90
2018-06-18T19:14:34.530Z,87.00
2018-06-18T19:17:03.682Z,87.70
2018-06-18T19:19:40.230Z,88.20
2018-06-18T19:22:10.110Z,87.50
2018-06-18T19:24:39.036Z,88.60
2018-06-18T19:27:09.818Z,87.40
2018-06-18T19:29:39.086Z,88.20
2018-06-18T19:32:08.281Z,87.90
2018-06-18T19:34:37.285Z,88.00
2018-06-18T19:37:06.542Z,88.60
2018-06-18T19:39:42.084Z,88.60
2018-06-18T19:42:11.545Z,88.40
2018-06-18T19:44:40.641Z,88.20
2018-06-18T19:47:20.183Z,88.60
2018-06-18T19:54:49.680Z,88.30
2018-06-18T19:57:18.662Z,88.40
2018-06-18T19:59:47.837Z,88.90
2018-06-18T20:02:16.857Z,88.30
2018-06-18T20:04:45.827Z,89.00
2018-06-18T20:07:15.143Z,89.50
2018-06-18T20:09:44.119Z,89.70
2018-06-18T20:12:13.074Z,89.50
2018-06-18T20:14:53.782Z,89.40
2018-06-18T20:17:24.825Z,89.80
2018-06-18T20:20:03.516Z,89.80
2018-06-18T20:22:35.205Z,89.50
2018-06-18T20:25:20.158Z,90.00
2018-06-18T20:28:01.932Z,89.80
2018-06-18T20:30:31.874Z,88.90
2018-06-18T20:33:11.519Z,89.30
2018-06-18T20:35:47.275Z,89.00
2018-06-18T20:38:16.221Z,89.20
2018-06-18T20:40:45.242Z,89.40
2018-06-18T20:43:14.260Z,88.50
2018-06-18T20:45:43.254Z,88.70
2018-06-18T20:50:40.878Z,89.30
2018-06-18T20:53:09.878Z,89.20
2018-06-18T20:55:38.800Z,89.60
2018-06-18T20:58:07.735Z,89.60
2018-06-18T21:00:36.822Z,89.60
2018-06-18T21:03:05.810Z,89.50
2018-06-18T21:05:34.812Z,90.10
2018-06-18T21:08:03.810Z,89.30
2018-06-18T21:10:32.814Z,89.70
2018-06-18T21:13:02.005Z,90.00
2018-06-18T21:15:31.345Z,90.10
2018-06-18T21:18:00.330Z,90.00
2018-06-18T21:20:29.515Z,90.20
2018-06-18T21:22:58.442Z,90.90
2018-06-18T21:25:27.352Z,90.50
2018-06-18T21:27:56.351Z,90.50
2018-06-18T21:30:25.314Z,90.10
2018-06-18T21:32:54.467Z,90.40
2018-06-18T21:35:23.354Z,90.60
2018-06-18T21:37:52.314Z,90.70
2018-06-18T21:40:21.493Z,90.80
2018-06-18T21:42:50.524Z,91.10
2018-06-18T21:45:21.574Z,91.20
2018-06-18T21:47:50.808Z,91.20
2018-06-18T21:50:19.790Z,91.30
2018-06-18T21:52:48.753Z,91.30
2018-06-18T21:55:17.702Z,91.30
2018-06-18T21:57:46.614Z,91.30
2018-06-18T22:00:26.957Z,91.30
2018-06-18T22:05:24.603Z,91.70
2018-06-18T22:07:54.021Z,91.50
2018-06-18T22:10:23.040Z,91.40
2018-06-18T22:12:52.045Z,91.20
2018-06-18T22:15:21.045Z,91.50
2018-06-18T22:17:50.228Z,91.60
2018-06-18T22:20:19.159Z,91.40
2018-06-18T22:22:48.241Z,91.50
2018-06-18T22:25:17.206Z,91.80
2018-06-18T22:27:46.374Z,91.60
2018-06-18T22:30:15.517Z,91.80
2018-06-18T22:32:44.509Z,92.00
2018-06-18T22:35:13.458Z,91.70
2018-06-18T22:37:42.617Z,91.90
2018-06-18T22:40:11.581Z,91.80
2018-06-18T22:42:40.546Z,91.70
2018-06-18T22:45:10.455Z,91.80
2018-06-18T22:47:39.571Z,92.30
2018-06-18T22:50:08.650Z,92.30
2018-06-18T22:52:37.626Z,92.10
2018-06-18T22:55:06.677Z,92.00
2018-06-18T22:57:44.097Z,92.20
2018-06-18T23:02:41.755Z,92.50
2018-06-18T23:05:10.774Z,92.70
2018-06-18T23:07:39.774Z,92.90
2018-06-18T23:10:08.946Z,92.60
2018-06-18T23:12:41.263Z,92.80
2018-06-18T23:15:11.581Z,92.30
2018-06-18T23:17:40.853Z,93.00
2018-06-18T23:20:09.904Z,92.90
2018-06-18T23:22:39.109Z,93.20
2018-06-18T23:25:08.142Z,93.00
2018-06-18T23:27:37.305Z,92.70
2018-06-18T23:30:06.279Z,92.80
2018-06-18T23:32:35.221Z,92.40
2018-06-18T23:35:04.410Z,92.50
2018-06-18T23:40:02.010Z,92.70
2018-06-18T23:42:31.148Z,93.00
2018-06-18T23:45:00.047Z,92.60
2018-06-18T23:47:29.013Z,92.70
2018-06-18T23:49:58.176Z,92.80
2018-06-18T23:52:27.101Z,92.70
2018-06-18T23:54:56.216Z,92.70
2018-06-18T23:57:25.222Z,92.60
2018-06-18T23:59:54.213Z,92.80
